Time;durP1;ratioP1;P1;durP2;ratioP2;P2;SDS_P1;SDS_P2;PMS_P1;PMS_P2;Temp;Humidity;BMP_temperature;BMP_pressure;BME280_temperature;BME280_humidity;BME280_pressure;Samples;Min_cycle;Max_cycle;Signal;HPM_P1;HPM_P2
2021/05/09 00:02:23;;;;;;;1.90;1.70;;;;;;;6.08;67.66;99671.46;1708456;82;21230;-42
2021/05/09 00:04:51;;;;;;;2.70;2.05;;;;;;;6.05;67.74;99676.13;1727113;82;21577;-42
2021/05/09 00:07:19;;;;;;;3.47;1.90;;;;;;;5.97;67.62;99674.25;1732484;82;21501;-42
2021/05/09 00:09:47;;;;;;;3.20;2.20;;;;;;;5.84;67.93;99665.00;1732182;82;21176;-42
2021/05/09 00:12:15;;;;;;;3.65;1.87;;;;;;;5.87;68.12;99684.56;1725664;82;21161;-42
2021/05/09 00:14:43;;;;;;;3.05;2.05;;;;;;;5.88;68.08;99675.39;1715970;82;21201;-42
2021/05/09 00:17:11;;;;;;;2.92;1.80;;;;;;;5.90;68.05;99683.94;1710170;82;21449;-42
2021/05/09 00:19:39;;;;;;;4.10;2.20;;;;;;;5.91;67.98;99684.16;1704164;84;22156;-42
2021/05/09 00:22:07;;;;;;;3.35;2.25;;;;;;;5.90;68.03;99689.33;1721027;82;21224;-42
2021/05/09 00:24:35;;;;;;;2.62;2.20;;;;;;;5.84;67.84;99688.67;1718160;82;21177;-42
2021/05/09 00:27:05;;;;;;;4.17;2.33;;;;;;;5.75;68.17;99689.23;1731282;82;21616;-42
2021/05/09 00:29:32;;;;;;;6.97;2.43;;;;;;;5.69;68.31;99684.58;1714324;82;21178;-42
2021/05/09 00:32:01;;;;;;;3.20;2.10;;;;;;;5.65;68.20;99692.26;1717740;82;21429;-42
2021/05/09 00:34:29;;;;;;;4.67;2.35;;;;;;;5.68;68.20;99686.23;1723587;82;21200;-42
2021/05/09 00:36:57;;;;;;;3.45;2.27;;;;;;;5.71;68.03;99692.34;1719249;82;21165;-41
2021/05/09 00:39:25;;;;;;;4.53;2.72;;;;;;;5.68;68.16;99692.95;1719640;82;21654;-42
2021/05/09 00:42:03;;;;;;;4.53;2.40;;;;;;;5.64;68.19;99694.16;1741537;81;21186;-42
2021/05/09 00:44:32;;;;;;;3.98;2.40;;;;;;;5.61;68.45;99698.83;1726805;82;21344;-42
2021/05/09 00:47:08;;;;;;;3.72;2.60;;;;;;;5.54;68.63;99698.51;1734208;82;21633;-42
2021/05/09 00:49:37;;;;;;;4.08;2.47;;;;;;;5.55;68.63;99707.38;1716243;83;21067;-42
2021/05/09 00:52:07;;;;;;;4.05;2.70;;;;;;;5.60;68.53;99705.86;1743486;81;21132;-42
2021/05/09 00:54:49;;;;;;;3.40;2.47;;;;;;;5.63;68.30;99703.87;1737807;82;21139;-42
2021/05/09 00:57:19;;;;;;;3.00;2.33;;;;;;;5.61;68.40;99708.25;1740940;81;22159;-42
2021/05/09 00:59:49;;;;;;;3.60;2.27;;;;;;;5.63;68.35;99709.25;1729455;81;21149;-42
2021/05/09 01:02:18;;;;;;;3.87;2.22;;;;;;;5.61;68.15;99706.91;1733664;82;21211;-42
2021/05/09 01:04:47;;;;;;;6.03;2.75;;;;;;;5.60;68.16;99709.90;1743362;81;21115;-42
2021/05/09 01:07:15;;;;;;;6.78;2.40;;;;;;;5.56;68.06;99712.44;1740299;82;21116;-42
2021/05/09 01:09:43;;;;;;;3.83;2.67;;;;;;;5.53;68.19;99712.27;1738773;82;21400;-42
2021/05/09 01:12:12;;;;;;;3.12;2.33;;;;;;;5.58;68.41;99714.80;1739508;81;21175;-42
2021/05/09 01:14:41;;;;;;;4.17;1.77;;;;;;;5.59;68.18;99721.77;1716757;82;21567;-42
2021/05/09 01:17:13;;;;;;;2.53;1.87;;;;;;;5.56;68.11;99719.72;1744595;82;21566;-42
2021/05/09 01:19:42;;;;;;;3.67;2.55;;;;;;;5.51;68.30;99719.32;1744403;81;21166;-42
2021/05/09 01:22:10;;;;;;;4.40;2.35;;;;;;;5.45;68.43;99721.92;1733560;81;21218;-42
2021/05/09 01:24:40;;;;;;;4.30;2.87;;;;;;;5.42;68.57;99729.84;1720106;82;21130;-42
2021/05/09 01:27:08;;;;;;;5.15;2.50;;;;;;;5.38;68.64;99729.66;1758070;79;21162;-42
2021/05/09 01:29:36;;;;;;;4.28;2.62;;;;;;;5.39;68.70;99733.94;1754221;80;21482;-42
2021/05/09 01:32:06;;;;;;;5.00;3.00;;;;;;;5.39;68.67;99735.28;1750851;80;21355;-42
2021/05/09 01:34:36;;;;;;;5.35;2.90;;;;;;;5.38;68.89;99739.07;1762167;80;21807;-42
2021/05/09 01:37:04;;;;;;;4.90;3.20;;;;;;;5.40;68.84;99740.11;1768014;80;21198;-42
2021/05/09 01:39:33;;;;;;;5.90;3.00;;;;;;;5.39;68.78;99740.66;1770612;80;20976;-42
2021/05/09 01:42:03;;;;;;;6.33;3.08;;;;;;;5.39;68.79;99737.97;1781196;79;21422;-42
2021/05/09 01:44:33;;;;;;;4.03;2.58;;;;;;;5.40;68.59;99743.59;1769311;80;21146;-42
2021/05/09 01:47:01;;;;;;;6.33;2.50;;;;;;;5.38;68.53;99744.45;1792037;78;21350;-42
2021/05/09 01:49:31;;;;;;;4.47;2.85;;;;;;;5.44;68.45;99743.74;1788423;78;21050;-42
2021/05/09 01:51:59;;;;;;;4.65;2.80;;;;;;;5.44;68.38;99746.43;1809643;77;22190;-42
2021/05/09 01:54:27;;;;;;;3.92;3.20;;;;;;;5.41;68.44;99750.55;1789071;78;21119;-42
2021/05/09 01:56:56;;;;;;;4.03;2.77;;;;;;;5.38;68.50;99757.89;1792400;77;21178;-42
2021/05/09 01:59:25;;;;;;;4.15;2.75;;;;;;;5.31;68.57;99756.79;1784167;79;21281;-42
2021/05/09 02:01:53;;;;;;;5.00;3.00;;;;;;;5.23;68.99;99759.69;1811751;78;21926;-42
2021/05/09 02:04:26;;;;;;;3.55;2.67;;;;;;;5.18;68.94;99758.52;1790494;77;21133;-42
2021/05/09 02:06:58;;;;;;;4.42;2.67;;;;;;;5.19;69.00;99758.73;1780263;78;21170;-42
2021/05/09 02:09:26;;;;;;;4.78;2.80;;;;;;;5.19;69.11;99762.77;1789098;77;21145;-42
2021/05/09 02:11:56;;;;;;;4.75;2.72;;;;;;;5.16;69.16;99772.81;1811353;77;21280;-42
2021/05/09 02:14:37;;;;;;;3.80;3.08;;;;;;;5.13;69.17;99781.51;1792419;78;21146;-42
2021/05/09 02:17:05;;;;;;;3.72;2.62;;;;;;;5.05;69.35;99776.88;1802097;78;21586;-42
2021/05/09 02:21:25;;;;;;;3.90;2.72;;;;;;;5.10;69.47;99790.97;1827899;78;22658;-40
2021/05/09 02:23:53;;;;;;;3.98;2.95;;;;;;;5.02;69.67;99793.64;1777358;79;21431;-40
2021/05/09 02:26:21;;;;;;;5.30;3.05;;;;;;;5.02;69.57;99792.30;1796422;79;21829;-41
2021/05/09 02:28:49;;;;;;;4.55;3.05;;;;;;;5.00;69.76;99797.18;1776593;79;20996;-40
2021/05/09 02:31:18;;;;;;;4.00;2.72;;;;;;;5.01;69.72;99801.45;1777366;79;21645;-40
2021/05/09 02:33:46;;;;;;;4.12;2.85;;;;;;;5.01;69.66;99801.45;1779146;79;21568;-40
2021/05/09 02:36:14;;;;;;;5.08;2.80;;;;;;;5.04;69.62;99810.23;1777707;77;21012;-40
2021/05/09 02:38:42;;;;;;;4.70;2.98;;;;;;;5.13;69.67;99807.80;1784829;79;21208;-40
2021/05/09 02:41:12;;;;;;;4.25;3.22;;;;;;;5.19;69.36;99817.31;1752143;80;21082;-40
2021/05/09 02:43:40;;;;;;;6.05;3.05;;;;;;;5.17;69.38;99813.38;1738285;82;20980;-40
2021/05/09 02:46:08;;;;;;;5.55;2.98;;;;;;;5.16;69.42;99819.30;1728326;82;21170;-40
2021/05/09 02:48:36;;;;;;;4.28;3.10;;;;;;;5.13;69.45;99821.82;1734366;82;21154;-40
2021/05/09 02:51:05;;;;;;;5.70;2.90;;;;;;;5.07;69.58;99821.17;1717984;82;21384;-40
2021/05/09 02:53:32;;;;;;;3.87;2.58;;;;;;;5.04;69.57;99827.69;1719851;82;21182;-40
2021/05/09 02:56:01;;;;;;;4.15;2.83;;;;;;;5.07;69.56;99833.26;1713751;83;21166;-41
2021/05/09 02:58:29;;;;;;;3.95;2.60;;;;;;;5.11;69.57;99827.50;1729994;80;21674;-41
2021/05/09 03:00:58;;;;;;;3.77;3.05;;;;;;;5.13;69.50;99844.66;1737669;81;21173;-41
2021/05/09 03:03:26;;;;;;;4.05;2.70;;;;;;;5.13;69.43;99841.98;1718688;82;21373;-40
2021/05/09 03:05:54;;;;;;;4.35;2.98;;;;;;;5.15;69.49;99845.12;1721667;82;21121;-40
2021/05/09 03:08:23;;;;;;;3.12;2.50;;;;;;;5.13;69.47;99860.21;1714718;82;21139;-40
2021/05/09 03:10:51;;;;;;;4.10;2.90;;;;;;;5.12;69.59;99860.55;1715223;81;21187;-40
2021/05/09 03:13:20;;;;;;;5.12;2.62;;;;;;;5.13;69.48;99859.45;1731011;81;21154;-40
2021/05/09 03:15:53;;;;;;;6.08;2.90;;;;;;;5.14;69.55;99872.55;1748057;80;21192;-40
2021/05/09 03:18:20;;;;;;;5.10;3.02;;;;;;;5.14;69.70;99868.52;1716653;82;21206;-40
2021/05/09 03:20:48;;;;;;;5.50;2.92;;;;;;;5.18;69.76;99865.45;1722080;82;21139;-40
2021/05/09 03:23:19;;;;;;;4.47;3.10;;;;;;;5.25;69.62;99867.70;1767287;79;21122;-40
2021/05/09 03:25:47;;;;;;;6.08;3.20;;;;;;;5.32;69.54;99871.28;1765998;79;21136;-40
2021/05/09 03:28:15;;;;;;;4.35;2.80;;;;;;;5.40;69.35;99867.27;1787476;79;21323;-41
2021/05/09 03:30:43;;;;;;;3.70;2.77;;;;;;;5.49;69.45;99876.14;1772757;79;21217;-41
2021/05/09 03:33:12;;;;;;;6.22;3.17;;;;;;;5.52;69.21;99876.86;1732371;81;21055;-41
2021/05/09 03:35:40;;;;;;;3.87;3.05;;;;;;;5.53;69.20;99879.79;1727224;81;21178;-40
2021/05/09 03:38:08;;;;;;;4.72;3.45;;;;;;;5.56;69.14;99878.39;1717163;82;21214;-40
2021/05/09 03:40:40;;;;;;;4.40;3.00;;;;;;;5.55;69.18;99888.34;1767548;79;21372;-41
2021/05/09 03:43:09;;;;;;;4.60;3.10;;;;;;;5.60;69.18;99888.20;1768950;79;21147;-40
2021/05/09 03:45:37;;;;;;;4.35;2.77;;;;;;;5.67;69.11;99888.52;1765748;79;21087;-41
2021/05/09 03:48:07;;;;;;;4.03;2.20;;;;;;;5.75;69.00;99891.55;1765379;79;21107;-41
2021/05/09 03:50:35;;;;;;;4.10;3.12;;;;;;;5.78;68.79;99894.40;1783807;79;21087;-41
2021/05/09 03:53:03;;;;;;;5.12;3.17;;;;;;;5.74;68.82;99896.14;1782244;79;22342;-40
2021/05/09 03:55:30;;;;;;;4.47;3.10;;;;;;;5.72;69.00;99900.23;1765483;79;21016;-41
2021/05/09 03:57:59;;;;;;;6.58;2.98;;;;;;;5.73;69.15;99889.72;1765039;81;21182;-41
2021/05/09 04:00:27;;;;;;;4.05;3.10;;;;;;;5.78;69.30;99903.81;1765063;80;21106;-41
2021/05/09 04:02:55;;;;;;;3.40;2.92;;;;;;;5.89;69.16;99903.00;1790013;79;21570;-41
2021/05/09 04:05:23;;;;;;;4.40;2.95;;;;;;;6.02;68.72;99908.78;1783868;79;21185;-41
2021/05/09 04:07:52;;;;;;;4.60;2.95;;;;;;;6.03;68.56;99900.95;1766381;79;21167;-40
2021/05/09 04:10:20;;;;;;;5.35;3.08;;;;;;;6.03;68.74;99907.68;1765277;79;21166;-41
2021/05/09 04:12:50;;;;;;;;;;;;;;;6.04;68.98;99916.00;1783925;78;21167;-41
2021/05/09 04:15:18;;;;;;;3.12;2.55;;;;;;;6.09;68.87;99909.12;1792361;79;20256;-41
2021/05/09 04:17:46;;;;;;;4.53;3.00;;;;;;;6.06;69.17;99916.45;1771382;79;22198;-41
2021/05/09 04:20:15;;;;;;;5.47;3.12;;;;;;;6.18;68.69;99923.92;1765240;79;21080;-41
2021/05/09 04:22:42;;;;;;;4.60;3.30;;;;;;;6.27;68.65;99922.02;1787255;79;21131;-41
2021/05/09 04:25:11;;;;;;;4.78;3.60;;;;;;;6.37;68.80;99930.58;1781031;79;21138;-41
2021/05/09 04:27:40;;;;;;;4.25;3.02;;;;;;;6.50;68.28;99929.61;1765726;79;21147;-41
2021/05/09 04:30:11;;;;;;;6.33;3.15;;;;;;;6.60;68.08;99935.78;1774302;79;21439;-41
2021/05/09 04:32:41;;;;;;;4.50;2.83;;;;;;;6.67;67.92;99935.55;1772377;79;21159;-41
2021/05/09 04:35:09;;;;;;;4.28;2.65;;;;;;;6.74;67.55;99949.31;1780591;79;21004;-41
2021/05/09 04:37:38;;;;;;;5.08;3.25;;;;;;;6.84;67.38;99949.53;1788969;79;21154;-41
2021/05/09 04:40:09;;;;;;;4.55;3.00;;;;;;;6.89;67.47;99952.06;1771185;79;21127;-41
2021/05/09 04:42:36;;;;;;;5.90;3.12;;;;;;;6.92;67.47;99948.75;1771483;79;21566;-41
2021/05/09 04:45:08;;;;;;;5.15;3.42;;;;;;;7.01;67.21;99963.00;1766801;79;21167;-41
2021/05/09 04:47:36;;;;;;;4.12;2.87;;;;;;;7.08;67.59;99959.23;1780890;79;21169;-41
2021/05/09 04:50:05;;;;;;;5.25;2.52;;;;;;;7.21;67.49;99962.87;1765982;79;21522;-41
2021/05/09 04:52:33;;;;;;;5.17;2.77;;;;;;;7.37;67.29;99970.64;1783017;79;21191;-41
2021/05/09 04:55:02;;;;;;;3.77;2.67;;;;;;;7.50;66.62;99965.62;1773240;79;21197;-41
2021/05/09 04:57:33;;;;;;;3.30;2.65;;;;;;;7.58;66.18;99968.83;1776455;79;21186;-41
2021/05/09 05:00:03;;;;;;;3.55;2.62;;;;;;;7.61;65.37;99971.42;1778915;79;21143;-41
2021/05/09 05:02:31;;;;;;;;;;;;;;;7.61;65.26;99982.22;1786886;79;21025;-41
2021/05/09 05:05:01;;;;;;;3.52;2.60;;;;;;;7.60;65.18;99977.95;1796553;79;20265;-41
2021/05/09 05:07:28;;;;;;;3.33;2.62;;;;;;;7.54;65.60;99991.39;1796489;79;21359;-41
2021/05/09 05:09:56;;;;;;;4.00;2.92;;;;;;;7.62;65.78;99997.30;1817702;78;21009;-41
2021/05/09 05:12:24;;;;;;;3.47;2.50;;;;;;;7.74;65.96;99990.67;1766689;79;21146;-41
2021/05/09 05:14:53;;;;;;;3.42;2.65;;;;;;;7.90;66.09;99986.84;1781526;79;21103;-41
2021/05/09 05:17:21;;;;;;;3.52;2.70;;;;;;;8.06;65.52;99981.12;1764688;79;21106;-41
2021/05/09 05:19:50;;;;;;;2.98;2.40;;;;;;;8.18;63.74;99986.03;1755924;79;21370;-41
2021/05/09 05:22:18;;;;;;;3.87;2.60;;;;;;;8.26;63.63;99992.51;1796311;77;21175;-41
2021/05/09 05:24:46;;;;;;;4.30;2.50;;;;;;;8.33;63.55;99993.37;1794077;79;21152;-41
2021/05/09 05:27:14;;;;;;;6.83;3.08;;;;;;;8.38;63.55;99993.16;1764954;79;21147;-41
2021/05/09 05:29:42;;;;;;;2.83;2.25;;;;;;;8.43;62.95;99991.61;1765027;80;21159;-41
2021/05/09 05:32:10;;;;;;;3.22;2.20;;;;;;;8.46;62.15;99996.38;1770476;79;22118;-42
2021/05/09 05:34:38;;;;;;;4.12;2.70;;;;;;;8.49;62.23;99991.64;1728923;81;21040;-42
2021/05/09 05:37:06;;;;;;;4.72;2.60;;;;;;;8.53;62.13;100003.37;1723631;82;21129;-41
2021/05/09 05:39:36;;;;;;;5.08;2.65;;;;;;;8.63;61.82;100002.98;1727024;82;21193;-41
2021/05/09 05:42:04;;;;;;;3.22;2.58;;;;;;;8.75;61.60;100008.45;1731146;82;21175;-41
2021/05/09 05:44:32;;;;;;;3.55;2.75;;;;;;;8.84;60.99;100009.17;1764907;81;21159;-41
2021/05/09 05:47:01;;;;;;;3.98;2.80;;;;;;;8.89;60.47;100004.13;1764979;81;21167;-41
2021/05/09 05:49:29;;;;;;;3.17;2.45;;;;;;;8.95;60.57;100007.65;1779676;78;21202;-41
2021/05/09 05:51:57;;;;;;;3.40;2.40;;;;;;;9.06;60.98;100008.00;1776990;78;21102;-41
2021/05/09 05:54:25;;;;;;;3.15;2.40;;;;;;;9.18;60.33;100008.05;1785088;79;21096;-42
2021/05/09 05:56:53;;;;;;;2.98;2.42;;;;;;;9.26;59.57;100019.89;1770920;79;21430;-41
2021/05/09 05:59:21;;;;;;;3.80;2.60;;;;;;;9.29;59.70;100020.04;1778161;79;21154;-41
2021/05/09 06:01:50;;;;;;;4.12;2.70;;;;;;;9.35;59.48;100027.36;1775041;79;21614;-41
2021/05/09 06:04:18;;;;;;;4.40;2.45;;;;;;;9.39;59.06;100029.06;1771005;79;21189;-41
2021/05/09 06:06:46;;;;;;;3.27;2.33;;;;;;;9.44;58.13;100025.38;1767240;79;21178;-41
2021/05/09 06:09:14;;;;;;;3.20;2.65;;;;;;;9.47;57.89;100024.69;1772472;79;21357;-41
2021/05/09 06:11:41;;;;;;;3.37;2.15;;;;;;;9.50;57.02;100022.66;1769452;79;21380;-41
2021/05/09 06:14:11;;;;;;;2.27;1.55;;;;;;;9.53;57.47;100022.80;1788884;79;20972;-41
2021/05/09 06:16:40;;;;;;;2.65;2.33;;;;;;;9.64;57.94;100024.48;1768384;79;21123;-41
2021/05/09 06:19:08;;;;;;;3.37;2.27;;;;;;;9.74;57.32;100026.75;1771827;79;21143;-41
2021/05/09 06:21:36;;;;;;;4.60;2.42;;;;;;;9.80;56.76;100030.03;1772970;79;21312;-41
2021/05/09 06:24:07;;;;;;;3.52;2.47;;;;;;;9.88;56.90;100033.98;1783084;79;21189;-41
2021/05/09 06:26:34;;;;;;;4.73;2.40;;;;;;;9.95;55.98;100028.80;1786889;79;21193;-41
2021/05/09 06:29:03;;;;;;;4.70;2.20;;;;;;;10.03;55.70;100038.73;1783844;79;21331;-41
2021/05/09 06:31:32;;;;;;;4.33;2.50;;;;;;;10.11;57.06;100033.55;1786478;79;21181;-40
2021/05/09 06:34:00;;;;;;;3.77;2.20;;;;;;;10.24;56.65;100043.27;1802364;79;21249;-40
2021/05/09 06:36:28;;;;;;;3.00;2.40;;;;;;;10.37;57.89;100042.12;1798774;79;21158;-39
2021/05/09 06:38:58;;;;;;;3.25;2.35;;;;;;;10.55;56.52;100042.67;1741786;82;21019;-40
2021/05/09 06:41:26;;;;;;;3.35;2.27;;;;;;;10.70;56.61;100042.72;1797156;79;21150;-39
2021/05/09 06:43:57;;;;;;;3.10;2.42;;;;;;;10.84;55.34;100036.94;1794410;78;21401;-39
2021/05/09 06:46:25;;;;;;;2.42;2.20;;;;;;;10.62;53.92;99990.78;1782749;79;25210;-40
2021/05/09 06:48:54;;;;;;;3.00;2.00;;;;;;;11.00;55.52;100045.11;1782004;80;21533;-39
2021/05/09 06:51:22;;;;;;;2.70;1.98;;;;;;;11.08;54.09;100036.84;1810932;79;21147;-40
2021/05/09 06:53:50;;;;;;;2.47;2.12;;;;;;;11.16;54.06;100040.53;1813862;78;21134;-40
2021/05/09 06:56:18;;;;;;;3.60;2.40;;;;;;;11.25;53.42;100039.23;1785153;79;21106;-39
2021/05/09 06:58:46;;;;;;;2.33;2.12;;;;;;;11.34;54.31;100039.87;1783176;79;21380;-39
2021/05/09 07:01:14;;;;;;;3.25;2.20;;;;;;;11.47;53.88;100039.81;1791862;79;21154;-40
2021/05/09 07:03:44;;;;;;;3.08;2.47;;;;;;;11.61;52.95;100036.11;1788427;77;21111;-40
2021/05/09 07:06:12;;;;;;;2.10;1.90;;;;;;;11.74;53.53;100039.77;1803987;79;21027;-41
2021/05/09 07:08:40;;;;;;;3.15;2.15;;;;;;;11.82;51.11;100033.14;1790501;79;21115;-40
2021/05/09 07:11:08;;;;;;;2.12;1.90;;;;;;;11.82;52.21;100032.58;1808662;79;21358;-40
2021/05/09 07:13:36;;;;;;;2.25;2.05;;;;;;;11.91;52.66;100040.57;1793824;79;21158;-40
2021/05/09 07:16:05;;;;;;;2.22;1.90;;;;;;;12.04;50.73;100043.40;1795716;79;21087;-40
2021/05/09 07:18:35;;;;;;;2.50;2.13;;;;;;;12.16;50.72;100039.20;1806211;78;21142;-39
2021/05/09 07:21:11;;;;;;;2.50;2.10;;;;;;;12.28;50.61;100033.67;1780881;80;21617;-40
2021/05/09 07:23:37;;;;;;;2.58;2.37;;;;;;;12.40;50.40;100041.70;1786411;80;21507;-40
2021/05/09 07:26:04;;;;;;;3.15;2.20;;;;;;;12.51;49.76;100046.81;1786323;80;21145;-40
2021/05/09 07:28:32;;;;;;;1.85;1.60;;;;;;;12.59;49.89;100048.53;1787313;80;21147;-40
2021/05/09 07:31:00;;;;;;;2.12;1.80;;;;;;;12.73;49.52;100048.64;1784710;80;21199;-40
2021/05/09 07:33:28;;;;;;;5.45;2.35;;;;;;;12.88;47.24;100051.85;1788585;78;21444;-40
2021/05/09 07:35:56;;;;;;;2.58;1.98;;;;;;;13.01;46.55;100049.22;1789248;80;21397;-41
2021/05/09 07:38:24;;;;;;;2.58;2.00;;;;;;;13.11;47.71;100056.84;1761279;80;21191;-41
2021/05/09 07:40:53;;;;;;;3.02;1.98;;;;;;;13.21;46.89;100050.83;1755745;80;21011;-41
2021/05/09 07:43:22;;;;;;;2.60;1.95;;;;;;;13.26;46.82;100039.64;1721781;80;21142;-41
2021/05/09 07:45:50;;;;;;;3.45;1.98;;;;;;;13.30;48.04;100043.22;1764489;80;21119;-41
2021/05/09 07:48:19;;;;;;;2.62;1.85;;;;;;;13.38;48.61;100042.19;1788799;80;21507;-41
2021/05/09 07:50:48;;;;;;;2.10;1.70;;;;;;;13.49;47.75;100054.64;1788164;80;21140;-41
2021/05/09 07:53:17;;;;;;;1.92;1.60;;;;;;;13.61;45.14;100041.41;1782192;80;21387;-41
2021/05/09 07:55:46;;;;;;;2.00;1.80;;;;;;;13.68;43.99;100040.18;1780779;80;21173;-41
2021/05/09 07:58:18;;;;;;;2.47;1.77;;;;;;;13.71;45.83;100042.96;1779664;80;21103;-41
2021/05/09 08:00:48;;;;;;;2.02;1.75;;;;;;;13.71;46.41;100048.98;1773016;80;22041;-41
2021/05/09 08:03:16;;;;;;;2.08;1.60;;;;;;;13.70;45.35;100049.55;1772806;80;21154;-41
2021/05/09 08:05:45;;;;;;;1.60;1.50;;;;;;;13.75;46.20;100053.34;1772217;80;21645;-41
2021/05/09 08:08:14;;;;;;;2.27;2.00;;;;;;;13.80;44.08;100050.88;1783601;80;21261;-40
2021/05/09 08:10:44;;;;;;;;;;;;;;;13.80;43.70;100044.86;1770397;80;21094;-40
2021/05/09 08:13:15;;;;;;;2.65;1.50;;;;;;;13.79;44.82;100047.97;1743595;81;21384;-40
2021/05/09 08:15:43;;;;;;;1.75;1.60;;;;;;;13.72;45.79;100049.20;1730778;82;21580;-40
2021/05/09 08:18:14;;;;;;;1.57;1.35;;;;;;;13.83;44.65;100050.97;1729594;82;21065;-40
2021/05/09 08:20:44;;;;;;;1.82;1.50;;;;;;;13.97;44.74;100044.16;1733639;82;21193;-40
2021/05/09 08:23:13;;;;;;;2.00;1.60;;;;;;;14.04;45.11;100040.96;1711869;81;21589;-40
2021/05/09 08:25:41;;;;;;;3.42;1.70;;;;;;;14.14;44.16;100040.91;1693918;83;22283;-40
2021/05/09 08:28:09;;;;;;;2.35;1.67;;;;;;;14.22;43.39;100039.89;1696215;83;21866;-40
2021/05/09 08:30:37;;;;;;;3.67;1.60;;;;;;;14.31;43.31;100041.77;1699997;82;21171;-40
2021/05/09 08:33:05;;;;;;;3.00;1.60;;;;;;;14.47;43.35;100047.11;1690019;83;21156;-40
2021/05/09 08:35:33;;;;;;;2.10;1.90;;;;;;;14.72;42.35;100052.30;1704900;83;21171;-40
2021/05/09 08:38:04;;;;;;;2.25;1.50;;;;;;;14.78;39.55;100048.09;1707841;83;21475;-40
2021/05/09 08:40:32;;;;;;;1.98;1.40;;;;;;;14.74;40.34;100043.17;1697082;83;21122;-40
2021/05/09 08:43:00;;;;;;;1.85;1.52;;;;;;;14.66;40.21;100052.44;1702268;83;21158;-40
2021/05/09 08:45:28;;;;;;;2.15;1.50;;;;;;;14.57;40.67;100052.69;1691134;83;21225;-40
2021/05/09 08:47:57;;;;;;;2.15;1.70;;;;;;;14.58;41.16;100046.08;1712615;83;21122;-40
2021/05/09 08:50:26;;;;;;;1.98;1.60;;;;;;;14.65;41.34;100037.21;1702222;84;21574;-41
2021/05/09 08:52:55;;;;;;;1.63;1.53;;;;;;;14.62;41.42;100034.63;1757264;81;21190;-41
2021/05/09 08:55:28;;;;;;;1.87;1.45;;;;;;;14.60;42.34;100056.63;1743383;81;21139;-40
2021/05/09 08:57:57;;;;;;;2.22;1.72;;;;;;;14.66;40.90;100045.61;1761888;80;20992;-40
2021/05/09 09:00:26;;;;;;;1.70;1.60;;;;;;;14.79;42.67;100046.95;1756930;81;21152;-40
2021/05/09 09:02:57;;;;;;;1.62;1.40;;;;;;;14.96;42.97;100043.64;1742478;81;22110;-40
2021/05/09 09:05:46;;;;;;;3.87;1.72;;;;;;;15.15;41.55;100044.84;1752060;81;21480;-40
2021/05/09 09:08:15;;;;;;;1.87;1.47;;;;;;;15.23;42.13;100046.51;1746475;81;21457;-40
2021/05/09 09:10:46;;;;;;;;;;;;;;;15.31;41.99;100054.77;1759066;81;21130;-40
2021/05/09 09:13:27;;;;;;;2.55;1.40;;;;;;;15.35;41.36;100044.66;1743156;81;20232;-40
2021/05/09 09:16:04;;;;;;;1.87;1.40;;;;;;;15.39;42.24;100034.58;1754074;80;21188;-40
2021/05/09 09:18:39;;;;;;;1.70;1.27;;;;;;;15.66;40.65;100053.80;1762278;81;21084;-40
2021/05/09 09:21:30;;;;;;;2.25;1.52;;;;;;;15.80;39.90;100049.82;1761797;81;21013;-40
2021/05/09 09:24:06;;;;;;;1.42;1.32;;;;;;;15.87;39.56;100043.06;1744167;81;21180;-40
2021/05/09 09:26:51;;;;;;;3.20;1.60;;;;;;;15.95;40.72;100039.78;1760062;80;21107;-40
2021/05/09 09:29:28;;;;;;;2.15;1.70;;;;;;;16.01;40.07;100043.17;1768026;81;22177;-40
2021/05/09 09:32:01;;;;;;;1.67;1.45;;;;;;;15.92;38.95;100042.71;1762936;81;21143;-40
2021/05/09 09:34:43;;;;;;;3.05;1.32;;;;;;;15.80;40.03;100044.35;1750874;80;21185;-41
2021/05/09 09:37:20;;;;;;;2.20;1.57;;;;;;;15.75;39.89;100042.54;1820440;77;22709;-42
2021/05/09 09:39:54;;;;;;;2.40;1.40;;;;;;;15.56;38.58;100040.81;1795620;78;20925;-41
2021/05/09 09:42:45;;;;;;;1.98;1.57;;;;;;;15.31;38.52;100045.99;1787159;79;21362;-41
2021/05/09 09:45:19;;;;;;;3.25;1.27;;;;;;;15.16;38.75;100051.09;1772689;79;21032;-41
2021/05/09 09:48:01;;;;;;;1.90;1.60;;;;;;;15.13;39.62;100049.11;1788644;78;20976;-41
2021/05/09 09:50:51;;;;;;;1.72;1.40;;;;;;;15.08;38.65;100052.17;1796293;78;21199;-40
2021/05/09 09:53:39;;;;;;;1.70;1.52;;;;;;;14.85;39.27;100061.06;1784978;79;21000;-42
2021/05/09 09:56:13;;;;;;;1.67;1.40;;;;;;;14.63;40.10;100062.70;1805261;79;21327;-43
2021/05/09 09:58:56;;;;;;;2.37;1.27;;;;;;;14.44;41.53;100065.55;1780031;80;20980;-43
2021/05/09 10:01:27;;;;;;;2.35;1.40;;;;;;;14.44;42.21;100062.25;1742580;80;21567;-43
2021/05/09 10:04:04;;;;;;;2.45;1.52;;;;;;;14.54;42.14;100066.28;1766747;79;20959;-43
2021/05/09 10:06:33;;;;;;;1.92;1.32;;;;;;;14.74;41.29;100064.44;1748842;80;20976;-43
2021/05/09 10:09:01;;;;;;;1.85;1.50;;;;;;;15.05;41.11;100054.30;1760559;81;22258;-43
2021/05/09 10:11:31;;;;;;;2.25;1.40;;;;;;;15.42;39.60;100058.41;1743551;81;21015;-43
2021/05/09 10:14:00;;;;;;;2.35;1.47;;;;;;;15.61;38.09;100054.14;1736073;81;21157;-43
2021/05/09 10:16:30;;;;;;;2.02;1.37;;;;;;;15.81;40.04;100054.13;1761805;81;21600;-43
2021/05/09 10:19:05;;;;;;;2.47;1.50;;;;;;;16.15;38.19;100056.74;1753828;81;21592;-43
2021/05/09 10:21:35;;;;;;;2.10;1.40;;;;;;;16.45;38.90;100062.83;1753702;81;21379;-43
2021/05/09 10:24:13;;;;;;;;;;;;;;;16.71;36.38;100057.70;1756433;81;21191;-43
2021/05/09 10:26:59;;;;;;;2.05;1.57;;;;;;;16.82;36.62;100055.23;1753332;81;20268;-43
2021/05/09 10:29:40;;;;;;;2.60;1.60;;;;;;;16.86;37.59;100054.66;1700150;83;21177;-43
2021/05/09 10:32:29;;;;;;;2.55;1.52;;;;;;;17.01;36.23;100061.56;1743744;81;21102;-43
2021/05/09 10:35:01;;;;;;;1.65;1.55;;;;;;;16.97;36.13;100071.14;1754175;81;21370;-43
2021/05/09 10:37:53;;;;;;;;;;;;;;;16.81;36.30;100073.41;1754211;81;21012;-43
2021/05/09 10:40:37;;;;;;;1.95;1.30;;;;;;;16.77;37.42;100067.92;1750548;81;20191;-43
2021/05/09 10:43:12;;;;;;;2.20;1.40;;;;;;;16.64;36.32;100061.20;1788852;79;21626;-43
2021/05/09 10:45:46;;;;;;;1.65;1.32;;;;;;;16.65;34.98;100060.05;1812597;79;21166;-43
2021/05/09 10:48:30;;;;;;;1.17;1.00;;;;;;;16.76;35.85;100061.45;1813024;79;21364;-44
2021/05/09 10:51:14;;;;;;;1.95;1.30;;;;;;;16.97;33.35;100049.81;1812881;79;21118;-44
2021/05/09 10:53:43;;;;;;;1.30;1.12;;;;;;;17.12;32.45;100044.59;1807689;79;21412;-44
2021/05/09 10:56:20;;;;;;;2.55;1.27;;;;;;;17.23;32.89;100043.43;1782199;79;21175;-42
2021/05/09 10:58:54;;;;;;;1.65;1.30;;;;;;;17.30;33.74;100042.67;1812192;79;21601;-42
2021/05/09 11:01:28;;;;;;;3.87;2.22;;;;;;;17.58;35.30;100051.54;1776996;80;21194;-42
2021/05/09 11:04:09;;;;;;;1.90;1.70;;;;;;;17.99;33.30;100054.16;1812801;79;21596;-42
2021/05/09 11:06:49;;;;;;;1.95;1.22;;;;;;;18.19;31.33;100052.59;1789180;79;21600;-42
2021/05/09 11:09:29;;;;;;;1.37;1.27;;;;;;;18.00;32.33;100054.95;1779194;79;21166;-42
2021/05/09 11:12:00;;;;;;;1.42;1.22;;;;;;;17.84;33.08;100055.92;1751504;80;21166;-42
2021/05/09 11:14:28;;;;;;;1.47;1.05;;;;;;;17.92;32.51;100043.17;1781241;79;21277;-42
2021/05/09 11:17:07;;;;;;;;;;;;;;;18.11;31.26;100051.59;1783671;80;21116;-42
2021/05/09 11:19:48;;;;;;;1.37;1.20;;;;;;;18.28;32.65;100050.81;1793662;78;20186;-43
2021/05/09 11:22:19;;;;;;;1.92;1.10;;;;;;;18.62;31.86;100053.32;1776942;80;21135;-43
2021/05/09 11:24:55;;;;;;;1.80;1.02;;;;;;;18.93;30.88;100053.59;1743220;82;21176;-42
2021/05/09 11:27:23;;;;;;;2.02;1.47;;;;;;;19.02;30.55;100049.27;1791227;78;21368;-43
2021/05/09 11:29:52;;;;;;;2.30;1.20;;;;;;;18.95;31.55;100049.87;1805805;78;21150;-42
2021/05/09 11:32:22;;;;;;;1.85;1.27;;;;;;;18.88;31.88;100056.78;1799660;79;20999;-42
2021/05/09 11:35:02;;;;;;;1.00;0.85;;;;;;;19.00;30.30;100050.24;1780829;80;21212;-43
2021/05/09 11:37:37;;;;;;;1.85;1.10;;;;;;;19.05;28.98;100048.45;1774172;80;21574;-43
2021/05/09 11:40:10;;;;;;;1.57;0.90;;;;;;;19.12;30.24;100055.89;1773974;79;21361;-43
2021/05/09 11:42:38;;;;;;;1.82;1.15;;;;;;;19.11;28.34;100044.70;1791163;79;21143;-43
2021/05/09 11:45:08;;;;;;;1.85;1.22;;;;;;;19.22;30.64;100052.28;1795520;79;21115;-42
2021/05/09 11:47:39;;;;;;;2.67;1.20;;;;;;;19.54;29.45;100039.77;1758647;81;21654;-43
2021/05/09 11:50:09;;;;;;;1.40;1.30;;;;;;;19.70;28.94;100043.40;1737559;82;21533;-43
2021/05/09 11:52:43;;;;;;;1.72;1.15;;;;;;;19.78;30.08;100041.56;1797576;79;21391;-43